createdAt,value
2018-04-01T00:02:20.665Z,96117.48
2018-04-01T00:04:51.468Z,96114.70
2018-04-01T00:07:22.266Z,96118.00
2018-04-01T00:09:53.064Z,96119.55
2018-04-01T00:12:23.870Z,96119.42
2018-04-01T00:14:54.644Z,96124.95
2018-04-01T00:17:25.450Z,96127.19
2018-04-01T00:19:56.213Z,96129.94
2018-04-01T00:22:26.972Z,96134.39
2018-04-01T00:24:57.747Z,96129.41
2018-04-01T00:27:28.521Z,96138.85
2018-04-01T00:29:59.319Z,96134.66
2018-04-01T00:32:30.104Z,96127.58
2018-04-01T00:35:00.865Z,96128.75
2018-04-01T00:37:31.648Z,96134.77
2018-04-01T00:40:02.437Z,96136.73
2018-04-01T00:42:33.215Z,96139.08
2018-04-01T00:45:04.030Z,96144.34
2018-04-01T00:47:34.793Z,96145.69
2018-04-01T00:50:05.597Z,96146.09
2018-04-01T00:52:36.389Z,96149.13
2018-04-01T00:55:07.212Z,96144.05
2018-04-01T00:57:37.985Z,96148.09
2018-04-01T01:00:08.745Z,96146.52
2018-04-01T01:02:39.524Z,96145.08
2018-04-01T01:05:10.273Z,96149.41
2018-04-01T01:07:41.091Z,96147.84
2018-04-01T01:10:11.843Z,96144.55
2018-04-01T01:12:42.629Z,96144.69
2018-04-01T01:15:13.433Z,96148.88
2018-04-01T01:17:44.193Z,96154.78
2018-04-01T01:20:14.989Z,96150.05
2018-04-01T01:22:45.774Z,96147.84
2018-04-01T01:25:16.564Z,96143.27
2018-04-01T01:27:47.340Z,96153.61
2018-04-01T01:30:18.138Z,96158.84
2018-04-01T01:32:48.896Z,96153.60
2018-04-01T01:35:19.669Z,96159.77
2018-04-01T01:37:50.465Z,96149.42
2018-04-01T01:40:21.282Z,96155.84
2018-04-01T01:42:52.049Z,96167.22
2018-04-01T01:45:22.838Z,96167.61
2018-04-01T01:47:53.609Z,96170.25
2018-04-01T01:50:24.374Z,96172.61
2018-04-01T01:52:55.139Z,96172.59
2018-04-01T01:55:25.878Z,96179.28
2018-04-01T01:57:56.688Z,96179.81
2018-04-01T02:00:27.473Z,96182.05
2018-04-01T02:02:58.268Z,96179.30
2018-04-01T02:05:29.068Z,96184.80
2018-04-01T02:07:59.861Z,96187.69
2018-04-01T02:10:30.651Z,96182.81
2018-04-01T02:13:01.444Z,96195.80
2018-04-01T02:15:32.233Z,96190.29
2018-04-01T02:18:03.019Z,96194.89
2018-04-01T02:20:33.793Z,96191.59
2018-04-01T02:23:04.567Z,96193.84
2018-04-01T02:25:35.337Z,96198.30
2018-04-01T02:28:06.088Z,96198.68
2018-04-01T02:30:36.900Z,96204.86
2018-04-01T02:33:07.667Z,96196.84
2018-04-01T02:35:38.461Z,96200.52
2018-04-01T02:38:09.250Z,96209.81
2018-04-01T02:40:40.033Z,96211.93
2018-04-01T02:43:10.832Z,96218.08
2018-04-01T02:45:41.628Z,96212.71
2018-04-01T02:48:12.452Z,96209.56
2018-04-01T02:50:43.232Z,96220.20
2018-04-01T02:53:13.994Z,96221.89
2018-04-01T02:55:44.771Z,96218.09
2018-04-01T02:58:15.577Z,96234.20
2018-04-01T03:00:46.363Z,96224.50
2018-04-01T03:03:17.155Z,96230.92
2018-04-01T03:05:47.981Z,96234.98
2018-04-01T03:08:18.752Z,96228.80
2018-04-01T03:10:49.541Z,96234.57
2018-04-01T03:13:20.330Z,96232.06
2018-04-01T03:15:51.138Z,96231.41
2018-04-01T03:18:21.904Z,96238.11
2018-04-01T03:20:52.673Z,96232.73
2018-04-01T03:23:23.458Z,96238.00
2018-04-01T03:25:54.237Z,96237.73
2018-04-01T03:28:25.010Z,96248.89
2018-04-01T03:30:55.797Z,96252.83
2018-04-01T03:33:26.561Z,96252.83
2018-04-01T03:35:57.353Z,96258.59
2018-04-01T03:38:28.166Z,96265.02
2018-04-01T03:40:58.953Z,96267.75
2018-04-01T03:43:29.721Z,96271.84
2018-04-01T03:46:00.551Z,96271.30
2018-04-01T03:48:31.300Z,96270.52
2018-04-01T03:51:02.079Z,96271.98
2018-04-01T03:53:32.851Z,96278.01
2018-04-01T03:56:03.607Z,96274.20
2018-04-01T03:58:34.389Z,96275.63
2018-04-01T04:01:05.178Z,96280.77
2018-04-01T04:03:36.023Z,96285.35
2018-04-01T04:06:06.812Z,96284.92
2018-04-01T04:08:37.615Z,96288.23
2018-04-01T04:11:08.382Z,96296.73
2018-04-01T04:13:39.187Z,96301.34
2018-04-01T04:16:09.939Z,96295.97
2018-04-01T04:18:40.713Z,96299.50
2018-04-01T04:21:11.456Z,96303.84
2018-04-01T04:23:42.287Z,96304.22
2018-04-01T04:26:13.076Z,96303.94
2018-04-01T04:28:43.836Z,96309.83
2018-04-01T04:31:14.598Z,96312.22
2018-04-01T04:33:45.389Z,96313.53
2018-04-01T04:36:16.178Z,96317.95
2018-04-01T04:38:46.956Z,96323.61
2018-04-01T04:41:17.737Z,96323.34
2018-04-01T04:43:48.505Z,96329.91
2018-04-01T04:46:19.284Z,96332.26
2018-04-01T04:48:50.043Z,96332.41
2018-04-01T04:51:20.801Z,96342.52
2018-04-01T04:53:51.605Z,96335.69
2018-04-01T04:56:22.360Z,96344.46
2018-04-01T04:58:53.135Z,96339.11
2018-04-01T05:01:23.922Z,96347.64
2018-04-01T05:03:54.699Z,96343.44
2018-04-01T05:06:25.456Z,96356.05
2018-04-01T05:08:56.252Z,96352.61
2018-04-01T05:11:27.021Z,96364.29
2018-04-01T05:13:57.815Z,96356.94
2018-04-01T05:16:28.605Z,96366.10
2018-04-01T05:18:59.402Z,96368.20
2018-04-01T05:21:30.199Z,96376.86
2018-04-01T05:24:00.965Z,96382.50
2018-04-01T05:26:31.759Z,96382.52
2018-04-01T05:29:02.508Z,96391.05
2018-04-01T05:31:33.299Z,96401.16
2018-04-01T05:34:04.057Z,96396.58
2018-04-01T05:36:34.833Z,96405.37
2018-04-01T05:39:05.642Z,96406.44
2018-04-01T05:41:36.439Z,96409.87
2018-04-01T05:44:07.239Z,96413.39
2018-04-01T05:46:38.001Z,96424.05
2018-04-01T05:49:08.809Z,96426.13
2018-04-01T05:51:39.589Z,96428.91
2018-04-01T05:54:10.375Z,96429.44
2018-04-01T05:56:41.145Z,96434.05
2018-04-01T05:59:11.912Z,96444.00
2018-04-01T06:01:42.721Z,96440.98
2018-04-01T06:04:13.504Z,96446.38
2018-04-01T06:06:44.293Z,96445.86
2018-04-01T06:09:15.094Z,96451.90
2018-04-01T06:11:45.914Z,96448.98
2018-04-01T06:14:16.727Z,96454.05
2018-04-01T06:16:47.483Z,96458.65
2018-04-01T06:19:18.257Z,96452.69
2018-04-01T06:21:49.019Z,96457.66
2018-04-01T06:24:19.763Z,96453.92
2018-04-01T06:26:50.552Z,96454.63
2018-04-01T06:29:21.361Z,96462.28
2018-04-01T06:31:52.143Z,96455.61
2018-04-01T06:34:22.904Z,96457.19
2018-04-01T06:36:53.669Z,96460.77
2018-04-01T06:39:24.439Z,96463.20
2018-04-01T06:41:55.200Z,96471.99
2018-04-01T06:44:25.952Z,96467.98
2018-04-01T06:46:56.736Z,96473.83
2018-04-01T06:49:27.510Z,96481.39
2018-04-01T06:51:58.284Z,96486.67
2018-04-01T06:54:29.056Z,96487.05
2018-04-01T06:56:59.872Z,96492.86
2018-04-01T06:59:30.647Z,96500.59
2018-04-01T07:02:01.421Z,96496.32
2018-04-01T07:04:32.230Z,96505.33
2018-04-01T07:07:02.992Z,96504.89
2018-04-01T07:09:33.769Z,96518.04
2018-04-01T07:12:04.571Z,96523.52
2018-04-01T07:14:35.342Z,96511.56
2018-04-01T07:17:06.130Z,96516.43
2018-04-01T07:22:06.180Z,96522.89
2018-04-01T07:24:36.937Z,96521.69
2018-04-01T07:27:07.749Z,96524.28
2018-04-01T07:29:38.515Z,96523.73
2018-04-01T07:32:09.313Z,96525.02
2018-04-01T07:34:40.101Z,96533.39
2018-04-01T07:37:10.870Z,96538.84
2018-04-01T07:39:41.675Z,96537.15
2018-04-01T07:42:12.512Z,96542.41
2018-04-01T07:44:43.295Z,96547.45
2018-04-01T07:47:14.088Z,96554.46
2018-04-01T07:49:44.840Z,96554.35
2018-04-01T07:52:15.603Z,96556.69
2018-04-01T07:54:46.355Z,96559.72
2018-04-01T07:57:17.179Z,96566.00
2018-04-01T07:59:47.921Z,96567.98
2018-04-01T08:02:18.758Z,96563.61
2018-04-01T08:04:49.561Z,96572.52
2018-04-01T08:07:20.343Z,96571.49
2018-04-01T08:09:51.133Z,96574.21
2018-04-01T08:12:21.901Z,96575.48
2018-04-01T08:14:52.716Z,96573.91
2018-04-01T08:17:23.527Z,96583.33
2018-04-01T08:19:54.291Z,96582.50
2018-04-01T08:22:25.083Z,96579.71
2018-04-01T08:24:55.866Z,96590.82
2018-04-01T08:27:26.652Z,96595.16
2018-04-01T08:29:57.542Z,96595.91
2018-04-01T08:32:28.317Z,96594.44
2018-04-01T08:34:59.104Z,96600.81
2018-04-01T08:37:29.887Z,96604.55
2018-04-01T08:40:00.676Z,96609.34
2018-04-01T08:42:31.445Z,96603.02
2018-04-01T08:45:02.254Z,96611.68
2018-04-01T08:47:33.011Z,96613.53
2018-04-01T08:50:05.082Z,96620.77
2018-04-01T08:52:35.859Z,96623.89
2018-04-01T08:55:06.622Z,96620.55
2018-04-01T08:57:37.394Z,96621.88
2018-04-01T09:00:08.246Z,96619.00
2018-04-01T09:02:39.017Z,96616.97
2018-04-01T09:05:09.803Z,96614.89
2018-04-01T09:07:40.581Z,96611.84
2018-04-01T09:10:11.368Z,96617.37
2018-04-01T09:12:42.143Z,96607.23
2018-04-01T09:15:12.948Z,96608.50
2018-04-01T09:17:43.736Z,96612.39
2018-04-01T09:20:14.534Z,96610.17
2018-04-01T09:22:45.317Z,96607.33
2018-04-01T09:25:16.091Z,96612.34
2018-04-01T09:27:46.913Z,96608.54
2018-04-01T09:30:17.752Z,96611.91
2018-04-01T09:32:48.534Z,96616.09
2018-04-01T09:35:19.353Z,96623.34
2018-04-01T09:37:50.137Z,96617.52
2018-04-01T09:40:20.895Z,96625.33
2018-04-01T09:42:51.660Z,96632.42
2018-04-01T09:45:22.461Z,96632.02
2018-04-01T09:47:53.250Z,96636.16
2018-04-01T09:50:24.024Z,96633.75
2018-04-01T09:52:54.775Z,96632.00
2018-04-01T09:55:25.549Z,96617.02
2018-04-01T09:57:56.328Z,96590.27
2018-04-01T10:00:27.162Z,96600.11
2018-04-01T10:02:58.141Z,96602.87
2018-04-01T10:05:29.164Z,96595.41
2018-04-01T10:08:00.124Z,96592.16
2018-04-01T10:10:31.129Z,96599.41
2018-04-01T10:13:02.145Z,96614.58
2018-04-01T10:15:33.094Z,96614.55
2018-04-01T10:18:04.104Z,96640.25
2018-04-01T10:20:35.059Z,96635.37
2018-04-01T10:23:06.054Z,96639.96
2018-04-01T10:25:37.029Z,96647.01
2018-04-01T10:28:08.062Z,96656.95
2018-04-01T10:30:39.105Z,96681.09
2018-04-01T10:33:10.173Z,96680.16
2018-04-01T10:35:41.169Z,96678.34
2018-04-01T10:38:12.198Z,96677.95
2018-04-01T10:40:43.180Z,96680.63
2018-04-01T10:43:14.179Z,96684.67
2018-04-01T10:45:45.168Z,96683.48
2018-04-01T10:48:16.179Z,96668.91
2018-04-01T10:50:47.210Z,96650.24
2018-04-01T10:53:18.218Z,96648.67
2018-04-01T10:55:49.005Z,96646.94
2018-04-01T10:58:19.761Z,96641.23
2018-04-01T11:00:50.562Z,96642.95
2018-04-01T11:03:21.352Z,96641.80
2018-04-01T11:05:52.145Z,96642.70
2018-04-01T11:08:22.929Z,96638.96
2018-04-01T11:10:53.732Z,96629.52
2018-04-01T11:13:24.521Z,96633.03
2018-04-01T11:15:55.290Z,96635.66
2018-04-01T11:18:26.035Z,96654.22
2018-04-01T11:20:56.779Z,96645.89
2018-04-01T11:23:27.580Z,96660.06
2018-04-01T11:25:58.383Z,96652.80
2018-04-01T11:28:29.201Z,96655.41
2018-04-01T11:30:59.987Z,96645.23
2018-04-01T11:33:30.758Z,96640.44
2018-04-01T11:36:01.535Z,96643.26
2018-04-01T11:38:32.321Z,96647.45
2018-04-01T11:41:03.082Z,96650.47
2018-04-01T11:43:33.841Z,96634.10
2018-04-01T11:46:04.599Z,96640.99
2018-04-01T11:48:35.388Z,96639.39
2018-04-01T11:51:06.187Z,96634.05
2018-04-01T11:53:36.973Z,96634.16
2018-04-01T11:56:07.782Z,96638.51
2018-04-01T11:58:38.556Z,96643.61
2018-04-01T12:01:09.359Z,96646.83
2018-04-01T12:03:40.137Z,96645.55
2018-04-01T12:06:10.918Z,96655.69
2018-04-01T12:08:41.723Z,96662.50
2018-04-01T12:11:12.483Z,96653.29
2018-04-01T12:13:43.239Z,96652.98
2018-04-01T12:16:14.004Z,96652.92
2018-04-01T12:18:44.783Z,96652.30
2018-04-01T12:21:15.670Z,96667.31
2018-04-01T12:23:46.530Z,96658.22
2018-04-01T12:26:17.326Z,96653.56
2018-04-01T12:28:48.117Z,96649.19
2018-04-01T12:31:18.873Z,96652.55
2018-04-01T12:33:49.679Z,96641.46
2018-04-01T12:36:20.453Z,96643.16
2018-04-01T12:38:51.326Z,96642.98
2018-04-01T12:41:22.092Z,96639.43
2018-04-01T12:43:52.835Z,96641.19
2018-04-01T12:46:23.592Z,96635.34
2018-04-01T12:48:54.369Z,96644.02
2018-04-01T12:51:25.162Z,96634.34
2018-04-01T12:53:55.915Z,96646.00
2018-04-01T12:56:26.703Z,96647.08
2018-04-01T12:58:57.497Z,96640.80
2018-04-01T13:01:28.292Z,96634.33
2018-04-01T13:03:59.064Z,96640.04
2018-04-01T13:06:29.845Z,96628.34
2018-04-01T13:09:00.620Z,96619.34
2018-04-01T13:11:31.439Z,96619.53
2018-04-01T13:14:02.242Z,96640.17
2018-04-01T13:16:33.016Z,96654.92
2018-04-01T13:19:03.776Z,96657.88
2018-04-01T13:21:34.540Z,96678.28
2018-04-01T13:24:05.340Z,96685.20
2018-04-01T13:26:36.157Z,96739.75
2018-04-01T13:29:06.956Z,96784.71
2018-04-01T13:31:37.720Z,96787.14
2018-04-01T13:34:08.487Z,96782.92
2018-04-01T13:36:39.271Z,96795.84
2018-04-01T13:39:10.053Z,96788.69
2018-04-01T13:41:40.810Z,96786.59
2018-04-01T13:44:11.603Z,96785.63
2018-04-01T13:46:42.396Z,96775.64
2018-04-01T13:49:13.179Z,96752.39
2018-04-01T13:51:43.928Z,96751.20
2018-04-01T13:54:14.693Z,96755.69
2018-04-01T13:56:45.537Z,96763.08
2018-04-01T13:59:16.325Z,96763.21
2018-04-01T14:01:47.077Z,96768.09
2018-04-01T14:04:17.829Z,96760.87
2018-04-01T14:06:48.635Z,96766.32
2018-04-01T14:09:19.377Z,96764.66
2018-04-01T14:11:50.191Z,96768.08
2018-04-01T14:14:20.991Z,96766.44
2018-04-01T14:16:51.780Z,96769.11
2018-04-01T14:19:22.534Z,96771.48
2018-04-01T14:21:53.318Z,96770.34
2018-04-01T14:24:24.062Z,96765.73
2018-04-01T14:26:54.853Z,96772.20
2018-04-01T14:29:25.637Z,96771.03
2018-04-01T14:31:56.389Z,96767.63
2018-04-01T14:34:27.187Z,96769.05
2018-04-01T14:36:58.002Z,96769.80
2018-04-01T14:39:28.794Z,96768.13
2018-04-01T14:41:59.551Z,96755.75
2018-04-01T14:44:30.334Z,96762.11
2018-04-01T14:47:01.087Z,96764.63
2018-04-01T14:49:31.902Z,96771.71
2018-04-01T14:52:02.672Z,96766.86
2018-04-01T14:54:33.453Z,96771.48
2018-04-01T14:57:04.235Z,96761.74
2018-04-01T14:59:35.019Z,96771.08
2018-04-01T15:02:05.827Z,96775.80
2018-04-01T15:04:36.599Z,96773.16
2018-04-01T15:07:07.372Z,96773.73
2018-04-01T15:09:38.159Z,96791.42
2018-04-01T15:12:08.938Z,96795.65
2018-04-01T15:14:39.680Z,96812.39
2018-04-01T15:17:10.463Z,96828.44
2018-04-01T15:19:41.204Z,96827.97
2018-04-01T15:22:12.021Z,96820.42
2018-04-01T15:24:42.796Z,96816.77
2018-04-01T15:27:13.598Z,96808.84
2018-04-01T15:29:44.382Z,96811.25
2018-04-01T15:32:15.145Z,96809.42
2018-04-01T15:34:45.921Z,96819.46
2018-04-01T15:37:16.699Z,96810.64
2018-04-01T15:39:47.493Z,96824.47
2018-04-01T15:42:18.276Z,96807.89
2018-04-01T15:44:49.064Z,96834.50
2018-04-01T15:47:19.847Z,96831.77
2018-04-01T15:49:50.655Z,96828.53
2018-04-01T15:52:21.425Z,96828.61
2018-04-01T15:54:52.238Z,96833.73
2018-04-01T15:57:23.045Z,96830.59
2018-04-01T15:59:53.817Z,96830.20
2018-04-01T16:02:24.608Z,96837.03
2018-04-01T16:04:55.379Z,96842.55
2018-04-01T16:07:26.188Z,96841.36
2018-04-01T16:09:56.955Z,96834.67
2018-04-01T16:12:27.748Z,96836.38
2018-04-01T16:14:58.539Z,96838.75
2018-04-01T16:17:29.289Z,96841.80
2018-04-01T16:20:00.089Z,96840.47
2018-04-01T16:22:30.878Z,96841.39
2018-04-01T16:25:01.691Z,96842.58
2018-04-01T16:27:32.439Z,96845.08
2018-04-01T16:30:03.268Z,96857.72
2018-04-01T16:32:34.029Z,96856.67
2018-04-01T16:35:04.815Z,96858.25
2018-04-01T16:37:35.580Z,96859.72
2018-04-01T16:40:06.346Z,96863.53
2018-04-01T16:42:37.135Z,96872.88
2018-04-01T16:45:07.868Z,96883.80
2018-04-01T16:47:38.675Z,96884.99
2018-04-01T16:50:09.462Z,96903.16
2018-04-01T16:52:40.245Z,96916.69
2018-04-01T16:55:11.022Z,96923.77
2018-04-01T16:57:41.774Z,96917.27
2018-04-01T17:00:12.560Z,96926.53
2018-04-01T17:02:43.360Z,96929.71
2018-04-01T17:05:14.129Z,96932.33
2018-04-01T17:07:44.896Z,96932.57
2018-04-01T17:10:15.674Z,96932.55
2018-04-01T17:12:46.470Z,96942.28
2018-04-01T17:15:17.267Z,96945.41
2018-04-01T17:17:48.026Z,96974.00
2018-04-01T17:20:18.832Z,96989.59
2018-04-01T17:22:49.587Z,96999.86
2018-04-01T17:25:20.379Z,96995.11
2018-04-01T17:27:51.166Z,96995.00
2018-04-01T17:30:21.957Z,96982.33
2018-04-01T17:32:52.730Z,97014.41
2018-04-01T17:35:23.511Z,97011.55
2018-04-01T17:37:54.279Z,97010.80
2018-04-01T17:40:25.091Z,97027.80
2018-04-01T17:42:55.892Z,97023.45
2018-04-01T17:45:26.723Z,97017.34
2018-04-01T17:47:57.495Z,97021.25
2018-04-01T17:50:28.241Z,97018.20
2018-04-01T17:52:59.041Z,97011.77
2018-04-01T17:55:29.853Z,97011.77
2018-04-01T17:58:00.648Z,97016.55
2018-04-01T18:00:31.429Z,97018.12
2018-04-01T18:03:02.222Z,97027.41
2018-04-01T18:05:33.000Z,97031.50
2018-04-01T18:08:03.776Z,97042.59
2018-04-01T18:10:34.581Z,97034.66
2018-04-01T18:13:05.349Z,97050.59
2018-04-01T18:15:36.120Z,97047.42
2018-04-01T18:18:06.928Z,97062.07
2018-04-01T18:20:37.691Z,97066.06
2018-04-01T18:23:08.477Z,97065.03
2018-04-01T18:25:39.306Z,97067.69
2018-04-01T18:28:10.060Z,97075.80
2018-04-01T18:30:40.859Z,97077.78
2018-04-01T18:33:11.611Z,97083.84
2018-04-01T18:35:42.416Z,97086.40
2018-04-01T18:38:13.165Z,97085.61
2018-04-01T18:40:43.930Z,97089.28
2018-04-01T18:43:14.688Z,97096.54
2018-04-01T18:45:45.480Z,97101.59
2018-04-01T18:48:16.252Z,97111.50
2018-04-01T18:50:47.019Z,97121.70
2018-04-01T18:53:17.812Z,97126.42
2018-04-01T18:55:48.633Z,97131.46
2018-04-01T18:58:19.466Z,97133.69
2018-04-01T19:00:50.222Z,97127.33
2018-04-01T19:03:20.997Z,97138.03
2018-04-01T19:05:51.772Z,97146.27
2018-04-01T19:08:22.577Z,97145.47
2018-04-01T19:10:53.363Z,97149.57
2018-04-01T19:13:24.159Z,97154.28
2018-04-01T19:15:54.941Z,97155.77
2018-04-01T19:18:25.959Z,97156.16
2018-04-01T19:20:56.935Z,97161.56
2018-04-01T19:23:27.949Z,97163.00
2018-04-01T19:25:58.936Z,97169.02
2018-04-01T19:28:29.917Z,97169.44
2018-04-01T19:31:00.908Z,97166.76
2018-04-01T19:33:31.926Z,97173.83
2018-04-01T19:36:02.897Z,97185.13
2018-04-01T19:38:40.748Z,97188.31
2018-04-01T19:41:11.753Z,97188.09
2018-04-01T19:43:42.799Z,97197.52
2018-04-01T19:46:13.838Z,97197.44
2018-04-01T19:48:44.824Z,97202.14
2018-04-01T19:51:15.885Z,97202.14
2018-04-01T19:53:46.880Z,97198.92
2018-04-01T19:56:17.914Z,97202.47
2018-04-01T19:58:48.889Z,97206.80
2018-04-01T20:01:19.876Z,97206.39
2018-04-01T20:03:50.852Z,97207.46
2018-04-01T20:06:21.829Z,97207.36
2018-04-01T20:08:52.800Z,97202.75
2018-04-01T20:11:23.813Z,97197.81
2018-04-01T20:13:54.840Z,97196.38
2018-04-01T20:16:25.829Z,97204.77
2018-04-01T20:18:56.907Z,97200.78
2018-04-01T20:21:27.891Z,97203.90
2018-04-01T20:23:58.832Z,97205.78
2018-04-01T20:26:29.821Z,97212.60
2018-04-01T20:29:00.789Z,97212.66
2018-04-01T20:31:31.799Z,97216.83
2018-04-01T20:34:02.751Z,97216.94
2018-04-01T20:36:33.744Z,97217.98
2018-04-01T20:39:04.809Z,97212.33
2018-04-01T20:41:35.800Z,97216.64
2018-04-01T20:44:06.774Z,97214.06
2018-04-01T20:46:37.767Z,97214.58
2018-04-01T20:49:08.739Z,97219.91
2018-04-01T20:51:39.747Z,97218.74
2018-04-01T20:54:10.720Z,97216.92
2018-04-01T20:56:41.731Z,97224.58
2018-04-01T20:59:12.713Z,97234.64
2018-04-01T21:01:43.718Z,97240.59
2018-04-01T21:04:14.750Z,97240.45
2018-04-01T21:06:45.761Z,97242.97
2018-04-01T21:09:16.785Z,97250.19
2018-04-01T21:11:47.793Z,97248.19
2018-04-01T21:14:18.819Z,97249.28
2018-04-01T21:16:49.792Z,97250.91
2018-04-01T21:19:20.820Z,97249.92
2018-04-01T21:21:51.809Z,97251.70
2018-04-01T21:24:22.811Z,97253.16
2018-04-01T21:26:53.798Z,97251.00
2018-04-01T21:29:24.773Z,97256.92
2018-04-01T21:31:55.781Z,97251.74
2018-04-01T21:34:26.743Z,97261.56
2018-04-01T21:36:57.769Z,97257.47
2018-04-01T21:39:28.751Z,97261.36
2018-04-01T21:41:59.724Z,97268.95
2018-04-01T21:44:30.692Z,97267.29
2018-04-01T21:47:01.720Z,97266.14
2018-04-01T21:49:32.729Z,97274.81
2018-04-01T21:52:03.768Z,97273.09
2018-04-01T21:54:34.712Z,97264.31
2018-04-01T22:00:01.726Z,97268.41
2018-04-01T22:02:32.763Z,97271.97
2018-04-01T22:05:03.737Z,97274.44
2018-04-01T22:07:34.699Z,97277.19
2018-04-01T22:10:05.723Z,97276.26
2018-04-01T22:12:36.677Z,97288.48
2018-04-01T22:15:07.709Z,97286.75
2018-04-01T22:17:38.681Z,97288.25
2018-04-01T22:20:09.733Z,97294.59
2018-04-01T22:22:53.025Z,97298.41
2018-04-01T22:25:24.027Z,97298.09
2018-04-01T22:27:54.964Z,97292.98
2018-04-01T22:30:25.969Z,97288.91
2018-04-01T22:32:56.984Z,97285.45
2018-04-01T22:35:27.942Z,97288.44
2018-04-01T22:37:58.895Z,97283.47
2018-04-01T22:40:29.858Z,97286.34
2018-04-01T22:43:00.833Z,97285.32
2018-04-01T22:45:31.842Z,97283.15
2018-04-01T22:48:02.864Z,97283.11
2018-04-01T22:50:33.865Z,97283.97
2018-04-01T22:53:04.875Z,97298.34
2018-04-01T22:55:35.897Z,97299.02
2018-04-01T22:58:06.879Z,97303.58
2018-04-01T23:00:37.907Z,97295.17
2018-04-01T23:03:08.914Z,97301.20
2018-04-01T23:05:39.866Z,97303.19
2018-04-01T23:08:10.860Z,97299.77
2018-04-01T23:10:41.813Z,97295.52
2018-04-01T23:13:12.802Z,97296.08
2018-04-01T23:15:43.769Z,97298.77
2018-04-01T23:18:14.736Z,97300.38
2018-04-01T23:20:45.750Z,97300.88
2018-04-01T23:23:16.788Z,97301.55
2018-04-01T23:25:47.772Z,97304.39
2018-04-01T23:28:18.795Z,97300.94
2018-04-01T23:30:49.736Z,97300.26
2018-04-01T23:33:20.697Z,97298.55
2018-04-01T23:35:51.674Z,97309.56
2018-04-01T23:38:22.699Z,97308.77
2018-04-01T23:40:53.677Z,97307.12
2018-04-01T23:43:24.695Z,97305.49
2018-04-01T23:45:55.657Z,97303.09
2018-04-01T23:48:26.631Z,97297.19
2018-04-01T23:50:57.619Z,97305.77
2018-04-01T23:53:28.646Z,97304.68
2018-04-01T23:55:59.657Z,97302.56
2018-04-01T23:58:30.666Z,97305.30
